createdAt,value
2019-01-26T00:09:37.386Z,50.80
2019-01-26T00:14:44.937Z,27.43
2019-01-26T00:19:58.473Z,41.17
2019-01-26T00:25:06.378Z,44.50
2019-01-26T00:30:13.950Z,39.30
2019-01-26T00:35:24.610Z,30.80
2019-01-26T00:40:43.363Z,27.30
2019-01-26T00:46:07.398Z,25.97
2019-01-26T00:56:34.527Z,21.57
2019-01-26T01:01:47.316Z,20.50
2019-01-26T01:06:58.253Z,22.30
2019-01-26T01:12:05.769Z,19.60
2019-01-26T01:17:13.010Z,14.10
2019-01-26T01:22:20.483Z,14.68
2019-01-26T01:27:27.798Z,18.15
2019-01-26T01:32:35.075Z,18.20
2019-01-26T01:37:42.477Z,14.58
2019-01-26T01:42:49.804Z,12.37
2019-01-26T01:47:57.013Z,17.00
2019-01-26T01:53:04.480Z,15.93
2019-01-26T01:58:11.940Z,16.90
2019-01-26T02:03:19.380Z,13.70
2019-01-26T02:08:26.938Z,22.37
2019-01-26T02:13:33.899Z,17.40
2019-01-26T02:18:41.234Z,17.90
2019-01-26T02:28:55.915Z,26.68
2019-01-26T02:34:03.387Z,18.53
2019-01-26T02:39:11.256Z,25.70
2019-01-26T02:44:18.568Z,26.02
2019-01-26T02:49:25.863Z,31.00
2019-01-26T02:54:33.094Z,28.77
2019-01-26T02:59:40.468Z,29.70
2019-01-26T03:04:47.798Z,37.58
2019-01-26T03:09:55.051Z,39.80
2019-01-26T03:15:02.390Z,31.63
2019-01-26T03:20:09.897Z,29.77
2019-01-26T03:25:17.390Z,31.68
2019-01-26T03:30:25.805Z,32.20
2019-01-26T03:35:33.033Z,32.23
2019-01-26T03:40:40.389Z,38.27
2019-01-26T03:45:48.389Z,35.28
2019-01-26T03:50:57.022Z,32.53
2019-01-26T03:56:04.393Z,32.88
2019-01-26T04:01:12.679Z,25.37
2019-01-26T04:06:19.919Z,27.13
2019-01-26T04:11:27.306Z,33.97
2019-01-26T04:31:56.006Z,31.75
2019-01-26T04:37:03.415Z,18.40
2019-01-26T04:42:10.994Z,22.50
2019-01-26T04:47:18.386Z,22.73
2019-01-26T04:52:25.996Z,25.50
2019-01-26T04:57:33.396Z,24.40
2019-01-26T05:02:40.497Z,18.48
2019-01-26T05:07:47.704Z,24.37
2019-01-26T05:18:02.007Z,20.53
2019-01-26T05:23:09.394Z,15.08
2019-01-26T05:28:30.948Z,14.55
2019-01-26T05:33:38.542Z,15.68
2019-01-26T05:38:45.867Z,10.57
2019-01-26T05:49:00.153Z,14.43
2019-01-26T05:54:07.513Z,10.60
2019-01-26T05:59:14.849Z,4.33
2019-01-26T06:04:22.044Z,6.63
2019-01-26T06:09:29.446Z,6.67
2019-01-26T06:19:44.743Z,6.85
2019-01-26T06:24:51.951Z,8.30
2019-01-26T06:29:59.386Z,5.13
2019-01-26T06:35:07.088Z,7.10
2019-01-26T06:40:14.495Z,7.77
2019-01-26T06:45:21.889Z,6.55
2019-01-26T06:50:30.390Z,7.92
2019-01-26T06:55:37.944Z,7.40
2019-01-26T07:00:45.258Z,8.40
2019-01-26T07:06:00.400Z,5.20
2019-01-26T07:11:08.041Z,5.50
2019-01-26T07:16:17.101Z,6.70
2019-01-26T07:21:24.478Z,5.62
2019-01-26T07:26:31.813Z,5.40
2019-01-26T07:31:39.027Z,8.93
2019-01-26T07:36:46.387Z,4.03
2019-01-26T07:47:00.730Z,3.97
2019-01-26T07:52:07.935Z,3.47
2019-01-26T07:57:15.373Z,4.73
2019-01-26T08:02:22.987Z,3.70
2019-01-26T08:07:30.377Z,4.08
2019-01-26T08:17:44.866Z,4.50
2019-01-26T08:22:52.054Z,3.07
2019-01-26T08:27:59.458Z,4.17
2019-01-26T08:33:06.788Z,5.27
2019-01-26T08:38:13.996Z,3.63
2019-01-26T08:43:21.380Z,3.00
2019-01-26T08:48:31.330Z,3.30
2019-01-26T08:53:37.938Z,2.75
2019-01-26T08:58:45.348Z,4.43
2019-01-26T09:09:05.378Z,3.47
2019-01-26T09:14:12.687Z,2.80
2019-01-26T09:19:20.044Z,2.83
2019-01-26T09:24:27.494Z,4.07
2019-01-26T09:29:34.890Z,3.60
2019-01-26T09:34:42.084Z,3.90
2019-01-26T09:39:49.493Z,3.17
2019-01-26T09:44:56.898Z,2.63
2019-01-26T09:50:04.375Z,2.55
2019-01-26T09:55:11.794Z,2.00
2019-01-26T10:00:19.618Z,4.13
2019-01-26T10:05:27.777Z,2.00
2019-01-26T10:10:35.776Z,1.55
2019-01-26T10:15:43.582Z,2.67
2019-01-26T10:20:50.979Z,1.97
2019-01-26T10:25:58.695Z,3.10
2019-01-26T10:31:05.905Z,2.87
2019-01-26T10:36:12.995Z,1.93
2019-01-26T10:46:28.921Z,2.13
2019-01-26T10:51:36.375Z,2.10
2019-01-26T10:56:43.936Z,1.50
2019-01-26T11:01:51.642Z,2.58
2019-01-26T11:06:59.968Z,1.98
2019-01-26T11:17:14.909Z,1.97
2019-01-26T11:22:22.391Z,2.27
2019-01-26T11:27:31.021Z,3.17
2019-01-26T11:32:50.915Z,3.45
2019-01-26T11:43:06.032Z,4.47
2019-01-26T11:48:17.379Z,3.53
2019-01-26T11:53:24.948Z,4.20
2019-01-26T11:58:33.372Z,4.50
2019-01-26T12:03:43.031Z,3.70
2019-01-26T12:08:50.631Z,4.10
2019-01-26T12:13:58.541Z,5.45
2019-01-26T12:19:05.858Z,6.63
2019-01-26T12:24:13.368Z,4.27
2019-01-26T12:29:20.756Z,4.75
2019-01-26T12:34:28.117Z,2.37
2019-01-26T12:44:43.071Z,3.77
2019-01-26T12:49:55.742Z,3.37
2019-01-26T12:55:04.569Z,2.75
2019-01-26T13:00:14.029Z,1.80
2019-01-26T13:05:21.602Z,3.37
2019-01-26T13:10:29.668Z,3.53
2019-01-26T13:15:38.407Z,3.40
2019-01-26T13:20:46.371Z,3.80
2019-01-26T13:25:53.656Z,2.90
2019-01-26T13:31:00.975Z,3.13
2019-01-26T13:36:08.791Z,2.80
2019-01-26T13:57:19.774Z,3.22
2019-01-26T14:02:27.082Z,35.27
2019-01-26T14:07:34.387Z,4.33
2019-01-26T14:17:48.984Z,2.30
2019-01-26T14:22:56.714Z,2.80
2019-01-26T14:28:04.121Z,3.20
2019-01-26T14:33:11.502Z,3.05
2019-01-26T14:38:18.935Z,3.77
2019-01-26T14:43:38.926Z,2.97
2019-01-26T14:48:46.770Z,2.47
2019-01-26T14:59:02.040Z,2.13
2019-01-26T15:09:16.384Z,1.77
2019-01-26T15:14:23.947Z,2.50
2019-01-26T15:19:31.450Z,2.47
2019-01-26T15:24:38.799Z,4.80
2019-01-26T15:29:46.059Z,5.87
2019-01-26T15:34:53.403Z,10.55
2019-01-26T15:40:01.739Z,2.30
2019-01-26T15:55:24.115Z,3.63
2019-01-26T16:00:32.383Z,2.43
2019-01-26T16:05:39.951Z,2.70
2019-01-26T16:10:47.423Z,2.92
2019-01-26T16:15:54.950Z,3.62
2019-01-26T16:31:16.658Z,4.30
2019-01-26T16:36:23.899Z,7.87
2019-01-26T16:41:31.247Z,3.55
2019-01-26T16:46:38.666Z,7.17
2019-01-26T16:51:45.959Z,4.47
2019-01-26T16:56:53.987Z,4.97
2019-01-26T17:02:00.970Z,4.00
2019-01-26T17:12:15.383Z,7.05
2019-01-26T17:17:28.124Z,5.67
2019-01-26T17:22:31.923Z,5.70
2019-01-26T17:27:39.384Z,8.37
2019-01-26T17:38:37.551Z,8.18
2019-01-26T17:43:45.055Z,8.70
2019-01-26T17:48:58.332Z,7.63
2019-01-26T17:54:05.610Z,7.27
2019-01-26T17:59:12.880Z,8.67
2019-01-26T18:04:20.374Z,9.90
2019-01-26T18:14:38.933Z,11.97
2019-01-26T18:19:46.382Z,12.15
2019-01-26T18:25:03.815Z,17.15
2019-01-26T18:30:06.750Z,13.20
2019-01-26T18:35:16.442Z,11.77
2019-01-26T18:40:25.627Z,16.47
2019-01-26T18:45:39.370Z,12.30
2019-01-26T18:50:56.328Z,12.82
2019-01-26T18:56:11.906Z,11.73
2019-01-26T19:01:23.421Z,13.70
2019-01-26T19:06:30.379Z,11.77
2019-01-26T19:17:08.998Z,14.77
2019-01-26T19:22:16.854Z,13.47
2019-01-26T19:27:24.674Z,12.82
2019-01-26T19:32:33.765Z,20.32
2019-01-26T19:37:42.482Z,17.97
2019-01-26T19:42:50.065Z,14.63
2019-01-26T19:47:58.436Z,14.83
2019-01-26T19:53:05.829Z,14.98
2019-01-26T19:58:13.889Z,14.13
2019-01-26T20:08:30.002Z,16.17
2019-01-26T20:13:55.246Z,16.27
2019-01-26T20:24:29.427Z,10.83
2019-01-26T20:29:38.437Z,11.70
2019-01-26T20:35:06.372Z,9.50
2019-01-26T20:40:13.947Z,9.63
2019-01-26T20:45:21.790Z,7.10
2019-01-26T20:50:31.534Z,8.90
2019-01-26T20:55:39.127Z,6.47
2019-01-26T21:05:54.778Z,7.13
2019-01-26T21:11:02.779Z,6.35
2019-01-26T21:16:10.373Z,9.53
2019-01-26T21:21:33.443Z,5.67
2019-01-26T21:26:48.113Z,5.17
2019-01-26T21:37:35.447Z,6.80
2019-01-26T21:42:53.426Z,6.90
2019-01-26T21:48:02.420Z,5.07
2019-01-26T21:53:15.638Z,9.30
2019-01-26T21:58:28.064Z,7.53
2019-01-26T22:03:37.428Z,8.27
2019-01-26T22:08:45.068Z,7.62
2019-01-26T22:13:52.633Z,9.77
2019-01-26T22:18:59.898Z,5.93
2019-01-26T22:24:08.048Z,7.57
2019-01-26T22:29:21.430Z,7.05
2019-01-26T22:34:33.920Z,8.53
2019-01-26T22:39:41.684Z,8.47
2019-01-26T22:44:48.914Z,7.23
2019-01-26T22:50:01.444Z,6.37
2019-01-26T22:55:12.734Z,8.95
2019-01-26T23:00:22.900Z,8.73
2019-01-26T23:05:30.601Z,8.03
2019-01-26T23:10:38.622Z,5.35
2019-01-26T23:15:47.407Z,7.03
2019-01-26T23:20:54.604Z,18.85
2019-01-26T23:31:12.252Z,6.67
2019-01-26T23:36:23.257Z,4.03
2019-01-26T23:41:41.577Z,5.78
2019-01-26T23:46:49.086Z,3.90
2019-01-26T23:51:56.405Z,4.93
2019-01-26T23:57:04.006Z,4.57
